createdAt,value
2023-11-13T00:02:22.102Z,10.27
2023-11-13T00:05:24.090Z,10.80
2023-11-13T00:08:26.292Z,10.25
2023-11-13T00:11:28.226Z,9.90
2023-11-13T00:14:30.519Z,9.75
2023-11-13T00:17:32.596Z,11.20
2023-11-13T00:20:34.480Z,10.75
2023-11-13T00:23:39.049Z,10.38
2023-11-13T00:26:41.052Z,9.30
2023-11-13T00:29:42.892Z,10.68
2023-11-13T00:32:44.790Z,11.00
2023-11-13T00:35:46.825Z,10.50
2023-11-13T00:38:48.776Z,10.20
2023-11-13T00:41:50.808Z,10.23
2023-11-13T00:44:52.730Z,9.77
2023-11-13T00:47:54.869Z,10.43
2023-11-13T00:50:57.336Z,10.48
2023-11-13T00:53:59.209Z,10.27
2023-11-13T00:57:01.262Z,9.88
2023-11-13T01:00:05.413Z,10.52
2023-11-13T01:03:07.621Z,10.23
2023-11-13T01:06:15.738Z,10.77
2023-11-13T01:09:17.622Z,10.10
2023-11-13T01:12:21.845Z,12.25
2023-11-13T01:15:24.199Z,13.77
2023-11-13T01:18:26.151Z,14.05
2023-11-13T01:21:28.489Z,14.63
2023-11-13T01:24:30.411Z,13.18
2023-11-13T01:27:32.375Z,11.85
2023-11-13T01:30:34.366Z,11.30
2023-11-13T01:33:36.296Z,10.57
2023-11-13T01:36:38.773Z,10.18
2023-11-13T01:39:40.776Z,10.25
2023-11-13T01:42:42.696Z,10.18
2023-11-13T01:45:45.459Z,11.32
2023-11-13T01:48:47.474Z,11.35
2023-11-13T01:51:50.693Z,11.48
2023-11-13T01:54:52.703Z,10.80
2023-11-13T01:57:54.745Z,10.77
2023-11-13T02:00:57.018Z,11.05
2023-11-13T02:03:59.101Z,11.20
2023-11-13T02:07:01.631Z,11.32
2023-11-13T02:10:06.150Z,11.50
2023-11-13T02:13:11.919Z,12.63
2023-11-13T02:16:14.155Z,12.75
2023-11-13T02:19:19.294Z,13.18
2023-11-13T02:22:21.529Z,12.73
2023-11-13T02:25:25.662Z,11.60
2023-11-13T02:28:28.294Z,10.90
2023-11-13T02:31:31.247Z,9.98
2023-11-13T02:34:33.343Z,10.05
2023-11-13T02:37:35.258Z,9.32
2023-11-13T02:40:37.099Z,9.77
2023-11-13T02:43:39.011Z,9.57
2023-11-13T02:46:41.323Z,10.50
2023-11-13T02:49:44.119Z,10.10
2023-11-13T02:52:46.398Z,10.00
2023-11-13T02:55:50.519Z,9.63
2023-11-13T02:58:52.630Z,9.95
2023-11-13T03:01:54.753Z,9.45
2023-11-13T03:04:56.854Z,10.57
2023-11-13T03:07:59.076Z,9.05
2023-11-13T03:11:01.191Z,10.00
2023-11-13T03:14:03.190Z,10.25
2023-11-13T03:17:05.599Z,10.10
2023-11-13T03:20:08.323Z,9.57
2023-11-13T03:23:10.788Z,8.85
2023-11-13T03:26:12.828Z,9.77
2023-11-13T03:29:14.825Z,8.93
2023-11-13T03:32:19.216Z,9.88
2023-11-13T03:35:21.383Z,9.48
2023-11-13T03:38:23.390Z,9.98
2023-11-13T03:41:25.931Z,9.95
2023-11-13T03:44:28.907Z,9.38
2023-11-13T03:47:30.871Z,9.35
2023-11-13T03:50:32.900Z,9.93
2023-11-13T03:53:35.882Z,9.70
2023-11-13T03:56:37.929Z,10.18
2023-11-13T03:59:39.892Z,10.48
2023-11-13T04:02:41.907Z,10.52
2023-11-13T04:05:43.897Z,11.77
2023-11-13T04:08:46.453Z,11.85
2023-11-13T04:11:48.378Z,10.75
2023-11-13T04:14:50.413Z,11.45
2023-11-13T04:17:53.045Z,10.15
2023-11-13T04:20:55.982Z,9.27
2023-11-13T04:23:57.981Z,10.38
2023-11-13T04:26:59.995Z,9.50
2023-11-13T04:30:02.201Z,10.15
2023-11-13T04:33:04.263Z,9.70
2023-11-13T04:36:07.014Z,10.35
2023-11-13T04:39:10.856Z,9.57
2023-11-13T04:42:12.967Z,10.40
2023-11-13T04:45:14.954Z,11.63
2023-11-13T04:48:16.882Z,12.18
2023-11-13T04:51:18.748Z,12.82
2023-11-13T04:54:20.759Z,12.07
2023-11-13T04:57:22.769Z,13.45
2023-11-13T05:00:24.631Z,13.23
2023-11-13T05:03:26.688Z,12.38
2023-11-13T05:06:28.683Z,11.80
2023-11-13T05:09:30.585Z,11.02
2023-11-13T05:12:32.529Z,11.70
2023-11-13T05:15:34.445Z,10.90
2023-11-13T05:18:36.745Z,26.77
2023-11-13T05:21:39.524Z,16.90
2023-11-13T05:24:42.318Z,13.98
2023-11-13T05:27:44.434Z,13.55
2023-11-13T05:30:46.336Z,13.40
2023-11-13T05:33:49.282Z,13.32
2023-11-13T05:36:51.358Z,10.85
2023-11-13T05:39:55.064Z,11.40
2023-11-13T05:42:56.995Z,10.50
2023-11-13T05:45:59.132Z,10.50
2023-11-13T05:49:01.303Z,10.13
2023-11-13T05:52:03.374Z,10.95
2023-11-13T05:55:07.005Z,10.60
2023-11-13T05:58:09.024Z,9.73
2023-11-13T06:01:11.097Z,9.88
2023-11-13T06:04:13.316Z,9.80
2023-11-13T06:07:15.587Z,8.93
2023-11-13T06:10:17.641Z,10.88
2023-11-13T06:13:19.665Z,10.07
2023-11-13T06:16:22.222Z,10.75
2023-11-13T06:19:24.866Z,11.50
2023-11-13T06:22:28.265Z,12.70
2023-11-13T06:25:30.911Z,12.13
2023-11-13T06:28:32.856Z,13.68
2023-11-13T06:31:35.794Z,12.85
2023-11-13T06:34:37.794Z,12.70
2023-11-13T06:37:42.533Z,12.60
2023-11-13T06:40:44.422Z,12.00
2023-11-13T06:43:46.826Z,11.98
2023-11-13T06:46:48.977Z,10.90
2023-11-13T06:49:51.034Z,9.93
2023-11-13T06:52:54.567Z,10.38
2023-11-13T06:55:56.535Z,10.45
2023-11-13T06:58:58.435Z,10.55
2023-11-13T07:02:01.972Z,9.93
2023-11-13T07:05:06.296Z,10.45
2023-11-13T07:08:11.131Z,11.15
2023-11-13T07:11:16.182Z,11.13
2023-11-13T07:14:18.269Z,9.52
2023-11-13T07:17:20.187Z,9.68
2023-11-13T07:20:22.885Z,9.57
2023-11-13T07:23:24.731Z,10.25
2023-11-13T07:26:27.641Z,10.65
2023-11-13T07:29:31.384Z,9.77
2023-11-13T07:32:33.453Z,9.38
2023-11-13T07:35:39.382Z,10.73
2023-11-13T07:38:44.056Z,10.10
2023-11-13T07:41:46.070Z,9.45
2023-11-13T07:44:50.940Z,9.43
2023-11-13T07:47:57.731Z,9.52
2023-11-13T07:50:59.759Z,10.13
2023-11-13T07:54:02.052Z,9.48
2023-11-13T07:57:05.360Z,9.65
2023-11-13T08:00:11.543Z,9.93
2023-11-13T08:03:17.846Z,9.65
2023-11-13T08:06:19.836Z,9.85
2023-11-13T08:09:21.989Z,9.27
2023-11-13T08:12:24.599Z,9.23
2023-11-13T08:15:26.964Z,10.25
2023-11-13T08:18:29.448Z,10.73
2023-11-13T08:21:32.653Z,11.65
2023-11-13T08:24:34.557Z,11.15
2023-11-13T08:27:39.806Z,10.88
2023-11-13T08:30:47.896Z,10.02
2023-11-13T08:33:49.831Z,9.95
2023-11-13T08:36:52.171Z,9.57
2023-11-13T08:39:54.402Z,10.68
2023-11-13T08:43:00.228Z,10.05
2023-11-13T08:46:05.418Z,8.75
2023-11-13T08:49:09.235Z,7.80
2023-11-13T08:52:11.731Z,8.18
2023-11-13T08:55:18.480Z,7.93
2023-11-13T08:58:20.711Z,8.57
2023-11-13T09:01:27.321Z,7.55
2023-11-13T09:04:29.428Z,8.70
2023-11-13T09:07:32.715Z,8.27
2023-11-13T09:10:34.732Z,9.13
2023-11-13T09:13:37.581Z,8.77
2023-11-13T09:16:42.306Z,7.90
2023-11-13T09:19:44.369Z,7.55
2023-11-13T09:22:50.223Z,6.82
2023-11-13T09:25:52.209Z,6.60
2023-11-13T09:28:56.284Z,7.53
2023-11-13T09:31:58.912Z,7.18
2023-11-13T09:35:01.108Z,7.75
2023-11-13T09:38:03.671Z,8.55
2023-11-13T09:41:10.207Z,8.38
2023-11-13T09:44:13.183Z,9.20
2023-11-13T09:47:22.807Z,8.18
2023-11-13T09:50:24.960Z,8.32
2023-11-13T09:53:30.926Z,7.88
2023-11-13T09:56:34.037Z,8.00
2023-11-13T09:59:39.087Z,8.57
2023-11-13T10:02:43.302Z,8.52
2023-11-13T10:05:45.928Z,7.63
2023-11-13T10:08:48.630Z,7.72
2023-11-13T10:11:50.916Z,8.30
2023-11-13T10:15:09.221Z,8.27
2023-11-13T10:18:14.027Z,8.50
2023-11-13T10:21:34.781Z,8.65
2023-11-13T10:24:43.986Z,8.20
2023-11-13T10:28:01.152Z,8.20
2023-11-13T10:31:06.219Z,7.65
2023-11-13T10:34:10.900Z,7.50
2023-11-13T10:37:14.696Z,6.70
2023-11-13T10:40:28.246Z,6.55
2023-11-13T10:43:35.292Z,6.00
2023-11-13T10:46:37.730Z,5.68
2023-11-13T10:49:40.820Z,6.18
2023-11-13T10:52:45.116Z,5.82
2023-11-13T10:55:48.759Z,5.40
2023-11-13T10:58:50.987Z,5.03
2023-11-13T11:01:58.794Z,4.68
2023-11-13T11:05:04.253Z,5.10
2023-11-13T11:08:06.694Z,5.00
2023-11-13T11:11:18.923Z,4.82
2023-11-13T11:14:51.341Z,5.30
2023-11-13T11:18:13.776Z,5.65
2023-11-13T11:21:36.835Z,5.47
2023-11-13T11:24:58.823Z,5.15
2023-11-13T11:28:01.155Z,5.50
2023-11-13T11:31:05.921Z,5.30
2023-11-13T11:34:08.675Z,5.07
2023-11-13T11:37:16.530Z,5.45
2023-11-13T11:40:32.587Z,4.80
2023-11-13T11:43:40.029Z,5.07
2023-11-13T11:47:00.210Z,5.18
2023-11-13T11:50:14.129Z,4.72
2023-11-13T11:53:20.608Z,5.03
2023-11-13T11:56:24.881Z,4.80
2023-11-13T11:59:28.861Z,4.65
2023-11-13T12:02:32.315Z,5.00
2023-11-13T12:05:35.230Z,4.90
2023-11-13T12:08:41.543Z,5.53
2023-11-13T12:11:44.399Z,5.10
2023-11-13T12:14:46.474Z,5.10
2023-11-13T12:17:48.570Z,4.70
2023-11-13T12:20:50.710Z,5.15
2023-11-13T12:23:54.218Z,3.97
2023-11-13T12:26:58.090Z,3.58
2023-11-13T12:30:07.453Z,4.03
2023-11-13T12:33:11.018Z,3.53
2023-11-13T12:36:14.819Z,3.25
2023-11-13T12:39:18.588Z,3.35
2023-11-13T12:42:21.385Z,3.55
2023-11-13T12:45:23.692Z,3.53
2023-11-13T12:48:25.574Z,3.80
2023-11-13T12:51:30.338Z,5.63
2023-11-13T12:54:33.497Z,4.55
2023-11-13T12:57:38.634Z,4.53
2023-11-13T13:00:42.025Z,4.78
2023-11-13T13:03:46.054Z,4.78
2023-11-13T13:06:49.938Z,4.28
2023-11-13T13:09:52.945Z,4.03
2023-11-13T13:12:55.274Z,4.38
2023-11-13T13:15:57.340Z,4.30
2023-11-13T13:18:59.992Z,4.43
2023-11-13T13:22:08.862Z,4.55
2023-11-13T13:25:12.380Z,4.18
2023-11-13T13:28:14.529Z,4.50
2023-11-13T13:31:16.893Z,4.55
2023-11-13T13:34:20.027Z,3.75
2023-11-13T13:37:24.933Z,4.18
2023-11-13T13:40:28.353Z,4.65
2023-11-13T13:43:30.634Z,4.35
2023-11-13T13:46:33.197Z,4.90
2023-11-13T13:49:35.497Z,4.18
2023-11-13T13:52:47.858Z,4.65
2023-11-13T13:55:49.824Z,4.78
2023-11-13T13:58:51.960Z,4.88
2023-11-13T14:01:53.951Z,4.47
2023-11-13T14:04:55.974Z,5.95
2023-11-13T14:07:58.090Z,5.68
2023-11-13T14:11:01.280Z,5.65
2023-11-13T14:14:03.218Z,6.82
2023-11-13T14:17:05.347Z,7.03
2023-11-13T14:20:16.841Z,6.85
2023-11-13T14:23:19.515Z,6.45
2023-11-13T14:26:21.440Z,7.05
2023-11-13T14:29:23.357Z,7.28
2023-11-13T14:32:25.507Z,7.38
2023-11-13T14:35:27.804Z,7.95
2023-11-13T14:38:31.278Z,9.05
2023-11-13T14:41:34.574Z,9.00
2023-11-13T14:44:36.999Z,8.15
2023-11-13T14:47:42.472Z,8.70
2023-11-13T14:50:45.581Z,8.82
2023-11-13T14:53:48.583Z,10.77
2023-11-13T14:56:50.453Z,10.23
2023-11-13T14:59:52.823Z,9.07
2023-11-13T15:02:54.985Z,9.82
2023-11-13T15:05:59.056Z,9.40
2023-11-13T15:09:01.652Z,9.82
2023-11-13T15:12:04.524Z,12.13
2023-11-13T15:15:09.458Z,13.98
2023-11-13T15:18:12.121Z,19.05
2023-11-13T15:21:14.516Z,20.70
2023-11-13T15:24:17.046Z,17.25
2023-11-13T15:27:21.218Z,17.77
2023-11-13T15:30:23.961Z,14.85
2023-11-13T15:33:25.955Z,17.23
2023-11-13T15:36:29.405Z,14.95
2023-11-13T15:39:31.360Z,12.73
2023-11-13T15:42:34.346Z,13.05
2023-11-13T15:45:37.367Z,12.07
2023-11-13T15:48:39.950Z,14.07
2023-11-13T15:51:42.389Z,13.10
2023-11-13T15:54:44.921Z,14.18
2023-11-13T15:57:46.925Z,13.57
2023-11-13T16:00:49.029Z,14.05
2023-11-13T16:03:51.068Z,13.95
2023-11-13T16:06:54.342Z,14.80
2023-11-13T16:09:56.349Z,15.45
2023-11-13T16:12:58.419Z,13.55
2023-11-13T16:16:00.507Z,17.67
2023-11-13T16:19:03.504Z,19.60
2023-11-13T16:22:05.668Z,17.40
2023-11-13T16:25:09.161Z,16.02
2023-11-13T16:28:11.522Z,18.40
2023-11-13T16:31:13.805Z,14.73
2023-11-13T16:34:16.106Z,12.32
2023-11-13T16:37:18.390Z,12.88
2023-11-13T16:40:21.869Z,11.77
2023-11-13T16:43:29.873Z,11.77
2023-11-13T16:46:34.377Z,12.23
2023-11-13T16:49:36.463Z,12.45
2023-11-13T16:52:39.510Z,12.05
2023-11-13T16:55:41.745Z,13.30
2023-11-13T16:58:43.654Z,12.68
2023-11-13T17:01:46.212Z,11.35
2023-11-13T17:04:48.703Z,11.85
2023-11-13T17:07:50.924Z,11.63
2023-11-13T17:10:55.861Z,10.70
2023-11-13T17:13:58.039Z,10.65
2023-11-13T17:17:00.188Z,11.38
2023-11-13T17:20:04.966Z,10.77
2023-11-13T17:23:11.826Z,11.13
2023-11-13T17:26:13.977Z,11.32
2023-11-13T17:29:15.869Z,11.60
2023-11-13T17:32:18.026Z,10.57
2023-11-13T17:35:21.512Z,10.77
2023-11-13T17:38:24.893Z,10.23
2023-11-13T17:41:27.184Z,11.75
2023-11-13T17:44:29.413Z,11.93
2023-11-13T17:47:31.670Z,12.95
2023-11-13T17:50:33.691Z,13.13
2023-11-13T17:53:35.534Z,12.77
2023-11-13T17:56:37.565Z,13.25
2023-11-13T17:59:43.030Z,12.30
2023-11-13T18:02:46.014Z,12.93
2023-11-13T18:05:49.724Z,12.38
2023-11-13T18:08:52.897Z,12.18
2023-11-13T18:11:55.714Z,12.48
2023-11-13T18:14:59.128Z,13.07
2023-11-13T18:18:02.269Z,13.57
2023-11-13T18:21:05.278Z,13.05
2023-11-13T18:24:13.131Z,13.45
2023-11-13T18:27:17.169Z,13.50
2023-11-13T18:30:20.599Z,13.13
2023-11-13T18:33:22.583Z,13.82
2023-11-13T18:36:25.599Z,13.77
2023-11-13T18:39:27.896Z,12.20
2023-11-13T18:42:30.199Z,11.85
2023-11-13T18:45:33.057Z,11.23
2023-11-13T18:48:35.066Z,11.05
2023-11-13T18:51:37.461Z,10.10
2023-11-13T18:54:39.408Z,9.05
2023-11-13T18:57:41.356Z,9.00
2023-11-13T19:00:43.697Z,8.98
2023-11-13T19:03:46.758Z,9.15
2023-11-13T19:06:49.007Z,8.40
2023-11-13T19:09:52.361Z,8.75
2023-11-13T19:12:54.525Z,9.23
2023-11-13T19:15:57.762Z,8.18
2023-11-13T19:18:59.738Z,8.27
2023-11-13T19:22:03.662Z,7.88
2023-11-13T19:25:10.169Z,8.05
2023-11-13T19:28:12.215Z,8.32
2023-11-13T19:31:14.108Z,8.65
2023-11-13T19:34:18.292Z,8.27
2023-11-13T19:37:20.956Z,9.07
2023-11-13T19:40:24.859Z,8.88
2023-11-13T19:43:26.758Z,9.32
2023-11-13T19:46:28.695Z,9.68
2023-11-13T19:49:31.576Z,9.13
2023-11-13T19:52:41.999Z,10.07
2023-11-13T19:55:49.110Z,11.43
2023-11-13T19:58:51.812Z,11.32
2023-11-13T20:01:53.991Z,11.07
2023-11-13T20:04:56.206Z,11.57
2023-11-13T20:07:59.094Z,10.63
2023-11-13T20:11:01.041Z,10.52
2023-11-13T20:14:03.227Z,10.30
2023-11-13T20:17:08.295Z,10.73
2023-11-13T20:20:11.301Z,9.35
2023-11-13T20:23:14.965Z,10.05
2023-11-13T20:26:16.905Z,10.13
2023-11-13T20:29:19.646Z,10.32
2023-11-13T20:32:21.750Z,9.63
2023-11-13T20:35:24.680Z,10.15
2023-11-13T20:38:27.849Z,10.55
2023-11-13T20:41:29.896Z,10.35
2023-11-13T20:44:31.967Z,9.95
2023-11-13T20:47:37.415Z,9.77
2023-11-13T20:50:39.912Z,9.65
2023-11-13T20:53:41.889Z,9.68
2023-11-13T20:56:45.877Z,9.52
2023-11-13T20:59:47.760Z,9.25
2023-11-13T21:02:49.815Z,10.35
2023-11-13T21:06:02.386Z,9.82
2023-11-13T21:09:09.758Z,9.68
2023-11-13T21:12:11.699Z,9.40
2023-11-13T21:15:14.122Z,10.68
2023-11-13T21:18:16.030Z,10.43
2023-11-13T21:21:17.965Z,9.43
2023-11-13T21:24:20.455Z,9.98
2023-11-13T21:27:22.340Z,8.98
2023-11-13T21:30:24.870Z,9.95
2023-11-13T21:33:26.951Z,9.43
2023-11-13T21:36:28.900Z,9.52
2023-11-13T21:39:31.351Z,9.73
2023-11-13T21:42:33.280Z,9.43
2023-11-13T21:45:35.677Z,9.85
2023-11-13T21:48:37.708Z,9.35
2023-11-13T21:51:39.597Z,10.23
2023-11-13T21:54:41.525Z,9.48
2023-11-13T21:57:43.664Z,9.73
2023-11-13T22:00:45.609Z,9.65
2023-11-13T22:03:47.696Z,10.82
2023-11-13T22:06:50.083Z,10.38
2023-11-13T22:09:51.975Z,10.35
2023-11-13T22:12:53.914Z,10.10
2023-11-13T22:15:56.989Z,10.35
2023-11-13T22:18:58.859Z,9.77
2023-11-13T22:22:00.714Z,9.88
2023-11-13T22:25:02.876Z,8.90
2023-11-13T22:28:04.874Z,9.52
2023-11-13T22:31:08.433Z,9.80
2023-11-13T22:34:10.960Z,9.32
2023-11-13T22:37:14.560Z,9.95
2023-11-13T22:40:16.526Z,10.13
2023-11-13T22:43:18.542Z,9.95
2023-11-13T22:46:21.073Z,9.95
2023-11-13T22:49:23.216Z,10.73
2023-11-13T22:52:25.243Z,11.07
2023-11-13T22:55:27.293Z,10.70
2023-11-13T22:58:29.225Z,10.52
2023-11-13T23:01:31.356Z,10.43
2023-11-13T23:04:34.741Z,11.68
2023-11-13T23:07:38.060Z,11.35
2023-11-13T23:10:40.104Z,11.77
2023-11-13T23:13:42.385Z,11.20
2023-11-13T23:17:08.562Z,11.73
2023-11-13T23:20:10.833Z,10.80
2023-11-13T23:23:12.946Z,10.43
2023-11-13T23:26:14.894Z,10.75
2023-11-13T23:29:16.817Z,11.45
2023-11-13T23:32:19.166Z,11.45
2023-11-13T23:35:21.375Z,11.88
2023-11-13T23:38:25.369Z,12.57
2023-11-13T23:41:27.291Z,12.38
2023-11-13T23:44:29.259Z,12.80
2023-11-13T23:47:34.701Z,12.63
2023-11-13T23:50:36.752Z,13.63
2023-11-13T23:53:39.242Z,12.52
2023-11-13T23:56:41.139Z,13.20
2023-11-13T23:59:44.065Z,12.85
